createdAt,value
2022-11-17T00:00:39.632Z,23.53
2022-11-17T00:01:39.595Z,24.22
2022-11-17T00:02:39.699Z,24.01
2022-11-17T00:03:39.581Z,24.33
2022-11-17T00:04:39.699Z,24.28
2022-11-17T00:05:39.566Z,23.85
2022-11-17T00:06:39.546Z,23.79
2022-11-17T00:07:39.548Z,23.74
2022-11-17T00:08:39.543Z,24.22
2022-11-17T00:09:39.502Z,24.12
2022-11-17T00:10:39.471Z,23.58
2022-11-17T00:11:39.500Z,23.53
2022-11-17T00:12:39.510Z,24.01
2022-11-17T00:13:39.460Z,24.06
2022-11-17T00:14:39.414Z,24.01
2022-11-17T00:15:39.488Z,23.85
2022-11-17T00:16:39.389Z,23.79
2022-11-17T00:17:39.458Z,24.12
2022-11-17T00:18:39.373Z,24.22
2022-11-17T00:19:39.363Z,23.90
2022-11-17T00:20:39.334Z,23.96
2022-11-17T00:21:39.332Z,23.69
2022-11-17T00:22:39.384Z,23.90
2022-11-17T00:23:39.304Z,23.96
2022-11-17T00:24:39.338Z,23.69
2022-11-17T00:25:39.312Z,23.96
2022-11-17T00:26:39.257Z,24.01
2022-11-17T00:27:39.247Z,24.38
2022-11-17T00:28:39.251Z,23.96
2022-11-17T00:29:39.563Z,24.17
2022-11-17T00:30:42.460Z,24.22
2022-11-17T00:31:39.201Z,23.42
2022-11-17T00:32:39.186Z,23.79
2022-11-17T00:33:39.214Z,23.90
2022-11-17T00:34:39.168Z,24.17
2022-11-17T00:35:39.145Z,23.79
2022-11-17T00:36:39.156Z,24.17
2022-11-17T00:37:39.124Z,24.22
2022-11-17T00:38:39.144Z,23.79
2022-11-17T00:39:39.141Z,23.85
2022-11-17T00:40:39.074Z,23.53
2022-11-17T00:41:39.115Z,24.12
2022-11-17T00:42:39.046Z,24.06
2022-11-17T00:43:39.043Z,24.06
2022-11-17T00:44:39.067Z,24.22
2022-11-17T00:45:39.013Z,24.01
2022-11-17T00:46:39.040Z,23.96
2022-11-17T00:47:38.993Z,23.74
2022-11-17T00:48:38.969Z,23.90
2022-11-17T00:49:39.002Z,24.12
2022-11-17T00:50:38.972Z,23.96
2022-11-17T00:51:38.949Z,24.06
2022-11-17T00:52:39.016Z,23.96
2022-11-17T00:53:38.926Z,24.12
2022-11-17T00:54:38.885Z,24.81
2022-11-17T00:55:39.027Z,24.55
2022-11-17T00:56:38.856Z,24.01
2022-11-17T00:57:38.882Z,24.12
2022-11-17T00:58:38.833Z,24.87
2022-11-17T00:59:38.831Z,24.87
2022-11-17T01:00:38.803Z,23.85
2022-11-17T01:01:38.867Z,24.65
2022-11-17T01:02:38.814Z,24.49
2022-11-17T01:03:38.814Z,24.65
2022-11-17T01:04:38.748Z,24.65
2022-11-17T01:05:38.777Z,24.71
2022-11-17T01:06:38.811Z,24.60
2022-11-17T01:07:38.844Z,24.65
2022-11-17T01:08:38.710Z,25.03
2022-11-17T01:09:38.788Z,25.03
2022-11-17T01:10:38.675Z,24.71
2022-11-17T01:11:38.676Z,24.76
2022-11-17T01:12:38.701Z,24.65
2022-11-17T01:13:38.704Z,24.76
2022-11-17T01:14:38.648Z,24.44
2022-11-17T01:15:38.622Z,24.55
2022-11-17T01:16:38.743Z,24.60
2022-11-17T01:17:38.642Z,24.65
2022-11-17T01:18:38.616Z,24.76
2022-11-17T01:19:38.575Z,25.24
2022-11-17T01:20:38.537Z,24.65
2022-11-17T01:21:38.588Z,25.14
2022-11-17T01:22:38.524Z,24.55
2022-11-17T01:23:38.548Z,24.71
2022-11-17T01:24:38.492Z,24.60
2022-11-17T01:25:38.528Z,24.71
2022-11-17T01:26:38.454Z,24.65
2022-11-17T01:27:38.462Z,24.98
2022-11-17T01:28:38.516Z,24.76
2022-11-17T01:29:38.439Z,25.24
2022-11-17T01:30:38.470Z,25.19
2022-11-17T01:31:38.415Z,24.81
2022-11-17T01:32:38.386Z,25.14
2022-11-17T01:33:38.511Z,24.98
2022-11-17T01:34:38.384Z,24.81
2022-11-17T01:35:38.357Z,24.81
2022-11-17T01:36:38.326Z,24.87
2022-11-17T01:37:38.370Z,25.08
2022-11-17T01:38:38.303Z,24.81
2022-11-17T01:39:38.356Z,24.92
2022-11-17T01:40:38.283Z,24.60
2022-11-17T01:41:38.275Z,24.81
2022-11-17T01:42:38.281Z,25.19
2022-11-17T01:43:38.281Z,24.81
2022-11-17T01:44:38.236Z,24.76
2022-11-17T01:45:38.267Z,24.71
2022-11-17T01:46:38.225Z,24.71
2022-11-17T01:47:38.220Z,25.03
2022-11-17T01:48:38.166Z,24.71
2022-11-17T01:49:38.216Z,24.60
2022-11-17T01:50:38.190Z,24.49
2022-11-17T01:51:38.145Z,24.92
2022-11-17T01:52:38.121Z,24.71
2022-11-17T01:53:38.304Z,25.24
2022-11-17T01:54:38.165Z,24.60
2022-11-17T01:55:38.100Z,24.98
2022-11-17T01:56:38.145Z,24.55
2022-11-17T01:57:38.129Z,24.81
2022-11-17T01:58:38.076Z,24.55
2022-11-17T01:59:38.081Z,24.76
2022-11-17T02:00:38.039Z,24.60
2022-11-17T02:01:38.187Z,25.03
2022-11-17T02:02:38.017Z,24.81
2022-11-17T02:03:38.399Z,25.14
2022-11-17T02:04:38.027Z,24.98
2022-11-17T02:05:37.999Z,24.55
2022-11-17T02:06:38.031Z,24.71
2022-11-17T02:07:38.089Z,24.87
2022-11-17T02:08:37.940Z,24.65
2022-11-17T02:09:37.939Z,24.55
2022-11-17T02:10:37.940Z,24.60
2022-11-17T02:11:37.921Z,24.38
2022-11-17T02:12:37.988Z,24.81
2022-11-17T02:13:38.140Z,24.65
2022-11-17T02:14:37.839Z,24.81
2022-11-17T02:15:37.849Z,24.87
2022-11-17T02:16:37.811Z,24.55
2022-11-17T02:17:37.905Z,24.71
2022-11-17T02:18:37.846Z,24.76
2022-11-17T02:19:37.818Z,24.49
2022-11-17T02:20:37.760Z,24.44
2022-11-17T02:21:37.753Z,24.49
2022-11-17T02:22:37.794Z,24.65
2022-11-17T02:23:37.993Z,24.81
2022-11-17T02:24:37.734Z,24.60
2022-11-17T02:25:37.696Z,24.65
2022-11-17T02:26:37.819Z,24.92
2022-11-17T02:27:37.690Z,24.76
2022-11-17T02:28:37.643Z,24.65
2022-11-17T02:29:37.712Z,24.55
2022-11-17T02:30:37.632Z,24.49
2022-11-17T02:31:37.646Z,24.60
2022-11-17T02:32:37.605Z,24.87
2022-11-17T02:33:37.996Z,24.65
2022-11-17T02:34:37.620Z,24.44
2022-11-17T02:35:37.572Z,24.71
2022-11-17T02:36:37.535Z,24.49
2022-11-17T02:37:37.596Z,24.71
2022-11-17T02:38:37.515Z,24.65
2022-11-17T02:39:37.553Z,24.76
2022-11-17T02:40:37.577Z,24.60
2022-11-17T02:41:37.502Z,24.55
2022-11-17T02:42:37.461Z,24.49
2022-11-17T02:43:37.771Z,24.44
2022-11-17T02:44:37.442Z,24.55
2022-11-17T02:45:37.479Z,24.98
2022-11-17T02:46:37.419Z,24.76
2022-11-17T02:47:37.415Z,24.49
2022-11-17T02:48:37.439Z,24.49
2022-11-17T02:49:37.401Z,24.60
2022-11-17T02:50:37.362Z,24.65
2022-11-17T02:51:37.380Z,24.60
2022-11-17T02:52:37.345Z,24.81
2022-11-17T02:53:37.766Z,24.49
2022-11-17T02:54:37.309Z,24.60
2022-11-17T02:55:37.393Z,24.60
2022-11-17T02:56:37.328Z,24.38
2022-11-17T02:57:37.279Z,24.71
2022-11-17T02:58:37.358Z,24.81
2022-11-17T02:59:37.269Z,24.44
2022-11-17T03:00:37.228Z,24.76
2022-11-17T03:01:37.269Z,24.76
2022-11-17T03:02:37.348Z,24.55
2022-11-17T03:03:37.505Z,24.65
2022-11-17T03:04:37.172Z,24.92
2022-11-17T03:05:37.201Z,24.38
2022-11-17T03:06:37.184Z,24.60
2022-11-17T03:07:37.268Z,24.55
2022-11-17T03:08:37.120Z,24.76
2022-11-17T03:09:37.117Z,24.81
2022-11-17T03:10:37.095Z,24.60
2022-11-17T03:11:37.087Z,24.71
2022-11-17T03:12:37.112Z,24.71
2022-11-17T03:13:37.413Z,24.60
2022-11-17T03:14:37.050Z,24.55
2022-11-17T03:15:37.124Z,24.55
2022-11-17T03:16:37.044Z,24.87
2022-11-17T03:17:37.018Z,24.60
2022-11-17T03:18:37.078Z,24.55
2022-11-17T03:19:36.988Z,24.81
2022-11-17T03:20:36.960Z,24.49
2022-11-17T03:21:36.973Z,24.65
2022-11-17T03:22:36.941Z,24.55
2022-11-17T03:23:37.456Z,24.49
2022-11-17T03:24:36.936Z,24.38
2022-11-17T03:25:36.910Z,24.71
2022-11-17T03:26:36.904Z,24.81
2022-11-17T03:27:36.941Z,24.49
2022-11-17T03:28:36.853Z,24.76
2022-11-17T03:29:36.909Z,24.98
2022-11-17T03:30:37.753Z,24.65
2022-11-17T03:31:36.820Z,24.98
2022-11-17T03:32:36.824Z,25.30
2022-11-17T03:33:37.261Z,24.71
2022-11-17T03:34:36.791Z,25.19
2022-11-17T03:35:36.793Z,24.92
2022-11-17T03:36:36.764Z,24.98
2022-11-17T03:37:36.834Z,25.41
2022-11-17T03:38:36.758Z,25.24
2022-11-17T03:39:36.708Z,25.51
2022-11-17T03:40:36.870Z,25.73
2022-11-17T03:41:36.688Z,25.24
2022-11-17T03:42:36.708Z,26.26
2022-11-17T03:43:37.149Z,25.46
2022-11-17T03:44:36.691Z,25.46
2022-11-17T03:45:36.630Z,26.16
2022-11-17T03:46:36.718Z,26.00
2022-11-17T03:47:36.602Z,25.94
2022-11-17T03:48:36.606Z,26.00
2022-11-17T03:49:36.600Z,25.89
2022-11-17T03:50:36.578Z,26.00
2022-11-17T03:51:36.593Z,26.48
2022-11-17T03:52:36.552Z,26.26
2022-11-17T03:53:36.928Z,26.21
2022-11-17T03:54:36.547Z,26.59
2022-11-17T03:55:36.577Z,26.86
2022-11-17T03:56:36.526Z,27.02
2022-11-17T03:57:36.540Z,26.91
2022-11-17T03:58:36.493Z,26.91
2022-11-17T03:59:36.488Z,26.80
2022-11-17T04:00:36.456Z,26.96
2022-11-17T04:01:36.521Z,26.86
2022-11-17T04:02:36.449Z,27.23
2022-11-17T04:03:36.708Z,26.69
2022-11-17T04:04:36.401Z,26.59
2022-11-17T04:05:36.405Z,26.69
2022-11-17T04:06:36.370Z,26.96
2022-11-17T04:07:36.429Z,26.59
2022-11-17T04:08:36.372Z,27.07
2022-11-17T04:09:36.310Z,26.91
2022-11-17T04:10:36.321Z,26.80
2022-11-17T04:11:36.329Z,26.69
2022-11-17T04:12:36.291Z,26.91
2022-11-17T04:13:36.488Z,26.91
2022-11-17T04:14:36.274Z,26.91
2022-11-17T04:15:36.267Z,26.59
2022-11-17T04:16:36.238Z,26.80
2022-11-17T04:17:36.224Z,27.02
2022-11-17T04:18:36.267Z,26.53
2022-11-17T04:19:36.200Z,26.69
2022-11-17T04:20:36.183Z,26.86
2022-11-17T04:21:36.159Z,26.75
2022-11-17T04:22:36.175Z,26.91
2022-11-17T04:23:36.567Z,26.96
2022-11-17T04:24:36.175Z,26.59
2022-11-17T04:25:36.107Z,26.64
2022-11-17T04:26:36.112Z,27.02
2022-11-17T04:27:36.088Z,26.96
2022-11-17T04:28:36.082Z,26.59
2022-11-17T04:29:36.106Z,26.75
2022-11-17T04:30:36.042Z,26.75
2022-11-17T04:31:36.030Z,26.86
2022-11-17T04:32:36.035Z,27.18
2022-11-17T04:33:36.272Z,27.02
2022-11-17T04:34:35.996Z,26.86
2022-11-17T04:35:36.007Z,26.80
2022-11-17T04:36:36.011Z,26.48
2022-11-17T04:37:35.958Z,26.75
2022-11-17T04:38:35.968Z,26.48
2022-11-17T04:39:35.915Z,26.86
2022-11-17T04:40:35.971Z,27.07
2022-11-17T04:41:36.002Z,26.37
2022-11-17T04:42:35.897Z,26.37
2022-11-17T04:43:36.205Z,26.53
2022-11-17T04:44:35.901Z,26.59
2022-11-17T04:45:35.846Z,26.26
2022-11-17T04:46:35.890Z,26.43
2022-11-17T04:47:35.810Z,26.59
2022-11-17T04:48:35.852Z,26.26
2022-11-17T04:49:35.790Z,26.64
2022-11-17T04:50:35.795Z,26.26
2022-11-17T04:51:35.824Z,26.59
2022-11-17T04:52:35.761Z,26.21
2022-11-17T04:53:36.081Z,26.59
2022-11-17T04:54:35.767Z,26.05
2022-11-17T04:55:35.716Z,26.69
2022-11-17T04:56:35.711Z,26.43
2022-11-17T04:57:35.713Z,26.53
2022-11-17T04:58:35.701Z,26.64
2022-11-17T04:59:35.656Z,26.10
2022-11-17T05:00:35.659Z,26.26
2022-11-17T05:01:35.710Z,26.43
2022-11-17T05:02:35.713Z,26.10
2022-11-17T05:03:35.989Z,26.32
2022-11-17T05:04:35.629Z,26.48
2022-11-17T05:05:35.607Z,25.94
2022-11-17T05:06:35.595Z,26.10
2022-11-17T05:07:35.666Z,26.26
2022-11-17T05:08:35.555Z,25.78
2022-11-17T05:09:35.586Z,26.43
2022-11-17T05:10:35.553Z,25.83
2022-11-17T05:11:35.498Z,26.10
2022-11-17T05:12:35.547Z,26.16
2022-11-17T05:13:35.790Z,26.10
2022-11-17T05:14:35.467Z,26.00
2022-11-17T05:15:35.441Z,25.89
2022-11-17T05:16:35.469Z,26.00
2022-11-17T05:17:35.415Z,25.73
2022-11-17T05:18:35.452Z,26.16
2022-11-17T05:19:35.406Z,26.00
2022-11-17T05:20:35.392Z,26.26
2022-11-17T05:21:35.377Z,26.00
2022-11-17T05:22:35.371Z,26.05
2022-11-17T05:23:35.731Z,25.78
2022-11-17T05:24:35.338Z,25.89
2022-11-17T05:25:35.308Z,25.62
2022-11-17T05:26:35.332Z,25.83
2022-11-17T05:27:35.351Z,25.67
2022-11-17T05:28:35.291Z,25.35
2022-11-17T05:29:35.305Z,25.51
2022-11-17T05:30:35.291Z,26.16
2022-11-17T05:31:35.238Z,25.30
2022-11-17T05:32:35.284Z,26.32
2022-11-17T05:33:37.931Z,25.51
2022-11-17T05:34:35.248Z,25.62
2022-11-17T05:35:35.250Z,25.67
2022-11-17T05:36:35.184Z,26.05
2022-11-17T05:37:35.166Z,25.19
2022-11-17T05:38:35.154Z,25.73
2022-11-17T05:39:35.170Z,25.51
2022-11-17T05:40:35.199Z,25.67
2022-11-17T05:41:35.106Z,25.51
2022-11-17T05:42:35.108Z,25.30
2022-11-17T05:43:35.359Z,26.10
2022-11-17T05:44:35.140Z,25.62
2022-11-17T05:45:35.094Z,25.35
2022-11-17T05:46:35.051Z,25.51
2022-11-17T05:47:35.122Z,25.51
2022-11-17T05:48:35.044Z,25.67
2022-11-17T05:49:35.018Z,25.46
2022-11-17T05:50:35.041Z,25.51
2022-11-17T05:51:34.976Z,25.35
2022-11-17T05:52:34.988Z,25.41
2022-11-17T05:53:35.275Z,25.62
2022-11-17T05:54:34.949Z,25.51
2022-11-17T05:55:34.993Z,24.87
2022-11-17T05:56:34.912Z,25.46
2022-11-17T05:57:34.899Z,26.32
2022-11-17T05:58:34.895Z,25.41
2022-11-17T05:59:34.947Z,25.57
2022-11-17T06:00:34.871Z,25.46
2022-11-17T06:01:34.867Z,25.41
2022-11-17T06:02:34.886Z,25.19
2022-11-17T06:03:35.073Z,25.57
2022-11-17T06:04:34.945Z,25.62
2022-11-17T06:05:34.795Z,25.41
2022-11-17T06:06:34.820Z,25.67
2022-11-17T06:07:34.834Z,24.98
2022-11-17T06:08:34.787Z,24.65
2022-11-17T06:09:34.787Z,25.78
2022-11-17T06:10:34.758Z,25.35
2022-11-17T06:11:34.758Z,25.51
2022-11-17T06:12:34.743Z,24.81
2022-11-17T06:13:34.946Z,25.03
2022-11-17T06:14:34.706Z,25.30
2022-11-17T06:15:34.648Z,25.14
2022-11-17T06:16:34.716Z,25.51
2022-11-17T06:17:34.603Z,25.62
2022-11-17T06:18:34.593Z,25.67
2022-11-17T06:19:34.645Z,25.67
2022-11-17T06:20:34.601Z,25.14
2022-11-17T06:22:04.488Z,25.24
2022-11-17T06:22:34.697Z,25.14
2022-11-17T06:23:34.855Z,25.83
2022-11-17T06:24:34.495Z,25.14
2022-11-17T06:25:34.498Z,25.35
2022-11-17T06:26:34.484Z,25.30
2022-11-17T06:27:34.575Z,25.41
2022-11-17T06:28:34.482Z,25.35
2022-11-17T06:29:38.170Z,25.46
2022-11-17T06:30:34.445Z,24.98
2022-11-17T06:31:34.390Z,24.98
2022-11-17T06:32:34.398Z,25.03
2022-11-17T06:33:34.691Z,25.14
2022-11-17T06:34:34.364Z,25.35
2022-11-17T06:35:34.353Z,25.14
2022-11-17T06:36:34.351Z,25.19
2022-11-17T06:37:34.360Z,25.19
2022-11-17T06:38:34.356Z,25.30
2022-11-17T06:39:34.289Z,25.03
2022-11-17T06:40:34.381Z,25.08
2022-11-17T06:41:34.271Z,25.30
2022-11-17T06:42:34.275Z,24.87
2022-11-17T06:43:34.696Z,25.08
2022-11-17T06:44:34.250Z,25.24
2022-11-17T06:45:34.261Z,25.08
2022-11-17T06:46:34.216Z,25.08
2022-11-17T06:47:34.205Z,24.98
2022-11-17T06:48:34.526Z,25.51
2022-11-17T06:49:34.179Z,24.92
2022-11-17T06:50:34.181Z,25.03
2022-11-17T06:51:34.130Z,24.98
2022-11-17T06:52:34.228Z,25.24
2022-11-17T06:53:34.427Z,24.92
2022-11-17T06:54:34.142Z,25.30
2022-11-17T06:55:34.156Z,24.98
2022-11-17T06:56:34.091Z,24.98
2022-11-17T06:57:34.059Z,25.03
2022-11-17T06:58:34.495Z,25.35
2022-11-17T06:59:34.068Z,25.14
2022-11-17T07:00:34.067Z,25.19
2022-11-17T07:01:34.077Z,24.98
2022-11-17T07:02:34.009Z,24.87
2022-11-17T07:03:34.321Z,25.08
2022-11-17T07:04:34.077Z,25.19
2022-11-17T07:05:33.985Z,25.19
2022-11-17T07:06:34.049Z,24.92
2022-11-17T07:07:34.030Z,25.14
2022-11-17T07:08:34.244Z,25.03
2022-11-17T07:09:33.908Z,24.44
2022-11-17T07:10:34.044Z,25.08
2022-11-17T07:11:33.909Z,25.30
2022-11-17T07:12:33.891Z,24.87
2022-11-17T07:13:33.883Z,25.30
2022-11-17T07:14:33.861Z,24.76
2022-11-17T07:15:33.880Z,25.30
2022-11-17T07:16:33.836Z,24.49
2022-11-17T07:17:33.836Z,24.92
2022-11-17T07:18:34.184Z,24.98
2022-11-17T07:19:33.789Z,25.35
2022-11-17T07:20:33.872Z,24.98
2022-11-17T07:21:33.769Z,24.92
2022-11-17T07:22:33.753Z,24.98
2022-11-17T07:23:33.796Z,25.08
2022-11-17T07:24:33.719Z,24.98
2022-11-17T07:25:33.730Z,25.14
2022-11-17T07:26:33.728Z,24.98
2022-11-17T07:27:33.659Z,24.76
2022-11-17T07:28:34.036Z,24.76
2022-11-17T07:29:33.693Z,24.76
2022-11-17T07:30:33.638Z,24.98
2022-11-17T07:31:33.653Z,24.98
2022-11-17T07:32:33.613Z,25.41
2022-11-17T07:33:33.596Z,24.49
2022-11-17T07:34:33.623Z,25.08
2022-11-17T07:35:33.585Z,24.65
2022-11-17T07:36:33.576Z,24.81
2022-11-17T07:37:33.639Z,24.87
2022-11-17T07:38:33.962Z,24.87
2022-11-17T07:39:33.514Z,24.98
2022-11-17T07:40:33.569Z,24.81
2022-11-17T07:41:33.506Z,24.92
2022-11-17T07:42:33.514Z,24.81
2022-11-17T07:43:33.452Z,24.71
2022-11-17T07:44:33.469Z,24.81
2022-11-17T07:45:33.521Z,24.65
2022-11-17T07:46:33.455Z,24.55
2022-11-17T07:47:33.483Z,24.55
2022-11-17T07:48:33.662Z,24.60
2022-11-17T07:49:33.451Z,24.81
2022-11-17T07:50:33.369Z,24.71
2022-11-17T07:51:33.459Z,24.44
2022-11-17T07:52:37.350Z,24.76
2022-11-17T07:53:33.532Z,24.60
2022-11-17T07:54:33.373Z,24.92
2022-11-17T07:55:33.327Z,24.76
2022-11-17T07:56:33.298Z,24.87
2022-11-17T07:57:33.287Z,24.44
2022-11-17T07:58:33.700Z,24.60
2022-11-17T07:59:33.395Z,24.76
2022-11-17T08:00:33.274Z,24.76
2022-11-17T08:01:33.286Z,24.55
2022-11-17T08:02:33.209Z,24.71
2022-11-17T08:03:33.349Z,24.44
2022-11-17T08:04:33.181Z,24.44
2022-11-17T08:05:37.035Z,24.38
2022-11-17T08:06:33.176Z,24.44
2022-11-17T08:07:33.221Z,24.76
2022-11-17T08:08:33.413Z,24.65
2022-11-17T08:09:33.192Z,24.92
2022-11-17T08:10:33.095Z,24.28
2022-11-17T08:11:34.253Z,24.38
2022-11-17T08:12:33.136Z,24.60
2022-11-17T08:13:33.102Z,24.92
2022-11-17T08:14:33.078Z,24.71
2022-11-17T08:15:33.055Z,24.60
2022-11-17T08:16:33.022Z,24.87
2022-11-17T08:17:33.029Z,24.76
2022-11-17T08:18:33.248Z,24.01
2022-11-17T08:19:33.062Z,24.06
2022-11-17T08:20:32.960Z,24.65
2022-11-17T08:21:32.966Z,24.60
2022-11-17T08:22:32.998Z,24.87
2022-11-17T08:23:32.962Z,24.65
2022-11-17T08:24:32.903Z,24.71
2022-11-17T08:25:32.974Z,24.17
2022-11-17T08:26:32.886Z,24.60
2022-11-17T08:27:32.927Z,24.71
2022-11-17T08:28:33.088Z,24.76
2022-11-17T08:29:32.857Z,24.65
2022-11-17T08:30:32.865Z,24.17
2022-11-17T08:31:32.861Z,24.71
2022-11-17T08:32:32.799Z,24.76
2022-11-17T08:33:32.831Z,24.81
2022-11-17T08:34:32.786Z,24.71
2022-11-17T08:35:37.126Z,24.98
2022-11-17T08:36:32.776Z,24.60
2022-11-17T08:37:32.774Z,24.98
2022-11-17T08:38:32.806Z,23.90
2022-11-17T08:39:32.734Z,24.71
2022-11-17T08:40:32.732Z,24.71
2022-11-17T08:41:32.721Z,24.65
2022-11-17T08:42:32.696Z,24.12
2022-11-17T08:43:32.679Z,25.03
2022-11-17T08:44:32.636Z,24.12
2022-11-17T08:45:32.692Z,23.85
2022-11-17T08:46:32.661Z,24.22
2022-11-17T08:47:32.706Z,24.38
2022-11-17T08:48:32.916Z,24.92
2022-11-17T08:49:32.602Z,23.85
2022-11-17T08:50:32.566Z,24.65
2022-11-17T08:51:32.617Z,24.65
2022-11-17T08:52:32.533Z,24.12
2022-11-17T08:53:32.544Z,23.90
2022-11-17T08:54:32.624Z,24.28
2022-11-17T08:55:35.679Z,24.01
2022-11-17T08:56:32.554Z,24.76
2022-11-17T08:57:32.722Z,24.76
2022-11-17T08:58:32.712Z,24.28
2022-11-17T08:59:32.470Z,24.44
2022-11-17T09:00:32.437Z,24.71
2022-11-17T09:01:32.547Z,24.60
2022-11-17T09:02:32.437Z,24.01
2022-11-17T09:03:32.431Z,24.38
2022-11-17T09:04:32.387Z,24.33
2022-11-17T09:05:32.395Z,24.38
2022-11-17T09:06:32.352Z,23.90
2022-11-17T09:07:34.868Z,24.33
2022-11-17T09:08:47.956Z,24.92
2022-11-17T09:09:32.429Z,24.12
2022-11-17T09:10:32.329Z,23.90
2022-11-17T09:11:32.317Z,24.71
2022-11-17T09:12:32.326Z,24.12
2022-11-17T09:13:32.275Z,24.17
2022-11-17T09:14:32.240Z,24.12
2022-11-17T09:15:32.329Z,24.65
2022-11-17T09:16:32.241Z,24.06
2022-11-17T09:17:32.277Z,23.79
2022-11-17T09:18:32.215Z,23.74
2022-11-17T09:19:32.248Z,23.96
2022-11-17T09:20:32.170Z,24.81
2022-11-17T09:21:32.192Z,23.96
2022-11-17T09:22:32.242Z,24.12
2022-11-17T09:23:32.338Z,24.12
2022-11-17T09:24:32.166Z,23.96
2022-11-17T09:25:32.122Z,24.06
2022-11-17T09:26:32.161Z,23.79
2022-11-17T09:27:32.097Z,24.12
2022-11-17T09:28:32.245Z,23.90
2022-11-17T09:30:48.158Z,24.17
2022-11-17T09:31:49.165Z,24.12
2022-11-17T09:32:49.119Z,24.12
2022-11-17T09:33:49.106Z,24.17
2022-11-17T09:34:49.147Z,24.17
2022-11-17T09:35:49.053Z,23.90
2022-11-17T09:36:49.133Z,24.17
2022-11-17T09:37:49.033Z,24.28
2022-11-17T09:38:49.285Z,24.17
2022-11-17T09:39:49.004Z,23.47
2022-11-17T09:40:49.021Z,24.06
2022-11-17T09:41:49.033Z,23.90
2022-11-17T09:42:48.988Z,23.90
2022-11-17T09:43:48.960Z,24.17
2022-11-17T09:44:49.006Z,23.47
2022-11-17T09:45:49.047Z,23.96
2022-11-17T09:46:48.966Z,24.06
2022-11-17T09:47:48.902Z,24.01
2022-11-17T09:48:48.968Z,24.12
2022-11-17T09:49:52.315Z,24.33
2022-11-17T09:50:48.899Z,24.17
2022-11-17T09:51:48.855Z,24.12
2022-11-17T09:52:48.942Z,24.33
2022-11-17T09:53:48.833Z,24.12
2022-11-17T09:54:49.001Z,24.17
2022-11-17T09:55:48.822Z,24.12
2022-11-17T09:56:48.822Z,24.22
2022-11-17T09:57:48.773Z,23.90
2022-11-17T09:58:48.794Z,23.63
2022-11-17T09:59:48.749Z,24.12
2022-11-17T10:00:48.784Z,24.06
2022-11-17T10:01:48.738Z,24.22
2022-11-17T10:02:48.731Z,24.28
2022-11-17T10:03:48.971Z,23.90
2022-11-17T10:04:48.759Z,24.17
2022-11-17T10:05:48.707Z,24.71
2022-11-17T10:06:48.679Z,24.44
2022-11-17T10:07:48.660Z,24.01
2022-11-17T10:08:48.662Z,24.38
2022-11-17T10:09:48.618Z,24.49
2022-11-17T10:10:48.729Z,24.71
2022-11-17T10:11:48.590Z,24.44
2022-11-17T10:12:48.597Z,25.03
2022-11-17T10:13:48.571Z,24.92
2022-11-17T10:14:48.580Z,25.24
2022-11-17T10:15:48.534Z,25.30
2022-11-17T10:16:48.593Z,25.51
2022-11-17T10:17:48.565Z,25.35
2022-11-17T10:18:48.524Z,25.67
2022-11-17T10:19:48.487Z,25.41
2022-11-17T10:20:48.496Z,25.67
2022-11-17T10:21:48.534Z,25.24
2022-11-17T10:22:48.476Z,25.78
2022-11-17T10:23:48.786Z,26.00
2022-11-17T10:24:48.465Z,26.05
2022-11-17T10:25:48.486Z,25.94
2022-11-17T10:26:48.462Z,25.73
2022-11-17T10:27:48.383Z,26.00
2022-11-17T10:28:48.389Z,26.59
2022-11-17T10:29:48.407Z,26.53
2022-11-17T10:30:48.365Z,26.00
2022-11-17T10:31:48.335Z,26.43
2022-11-17T10:32:48.630Z,26.53
2022-11-17T10:33:48.467Z,27.12
2022-11-17T10:34:48.332Z,26.64
2022-11-17T10:35:48.306Z,27.61
2022-11-17T10:36:48.295Z,27.39
2022-11-17T10:37:48.275Z,27.82
2022-11-17T10:38:48.260Z,28.04
2022-11-17T10:39:48.227Z,28.36
2022-11-17T10:40:48.246Z,28.09
2022-11-17T10:41:48.221Z,28.14
2022-11-17T10:42:48.248Z,28.31
2022-11-17T10:43:48.178Z,28.31
2022-11-17T10:44:48.188Z,28.36
2022-11-17T10:45:48.156Z,28.20
2022-11-17T10:46:48.169Z,28.74
2022-11-17T10:47:48.131Z,28.14
2022-11-17T10:48:48.164Z,28.20
2022-11-17T10:49:48.111Z,28.14
2022-11-17T10:50:48.109Z,28.25
2022-11-17T10:51:48.068Z,28.25
2022-11-17T10:52:48.211Z,28.74
2022-11-17T10:53:48.248Z,28.36
2022-11-17T10:54:48.067Z,28.25
2022-11-17T10:55:48.110Z,28.52
2022-11-17T10:56:48.052Z,28.41
2022-11-17T10:57:47.989Z,28.47
2022-11-17T10:58:48.105Z,28.20
2022-11-17T10:59:53.447Z,28.04
2022-11-17T11:00:48.013Z,28.09
2022-11-17T11:01:48.054Z,27.93
2022-11-17T11:02:47.958Z,28.63
2022-11-17T11:03:47.996Z,29.65
2022-11-17T11:04:47.967Z,30.13
2022-11-17T11:05:47.976Z,31.10
2022-11-17T11:06:47.893Z,32.55
2022-11-17T11:07:47.856Z,32.28
2022-11-17T11:08:47.984Z,32.12
2022-11-17T11:09:47.864Z,32.39
2022-11-17T11:10:47.869Z,30.94
2022-11-17T11:11:47.816Z,31.10
2022-11-17T11:12:47.881Z,31.31
2022-11-17T11:13:47.785Z,31.10
2022-11-17T11:14:47.880Z,31.42
2022-11-17T11:15:47.821Z,30.99
2022-11-17T11:16:48.430Z,31.04
2022-11-17T11:17:47.730Z,31.10
2022-11-17T11:18:47.859Z,29.92
2022-11-17T11:19:47.708Z,30.13
2022-11-17T11:20:47.806Z,30.45
2022-11-17T11:21:47.687Z,29.43
2022-11-17T11:22:47.688Z,29.38
2022-11-17T11:23:47.662Z,29.76
2022-11-17T11:24:47.669Z,29.33
2022-11-17T11:25:47.665Z,29.27
2022-11-17T11:26:47.640Z,29.06
2022-11-17T11:27:47.601Z,29.17
2022-11-17T11:28:52.731Z,28.84
2022-11-17T11:29:47.607Z,28.63
2022-11-17T11:30:47.605Z,28.74
2022-11-17T11:31:47.570Z,28.63
2022-11-17T11:32:47.555Z,28.74
2022-11-17T11:33:47.559Z,28.68
2022-11-17T11:34:47.506Z,29.06
2022-11-17T11:35:47.556Z,28.63
2022-11-17T11:36:47.515Z,28.04
2022-11-17T11:37:47.501Z,28.14
2022-11-17T11:38:47.457Z,28.09
2022-11-17T11:39:47.520Z,28.20
2022-11-17T11:40:47.435Z,28.41
2022-11-17T11:41:47.475Z,27.93
2022-11-17T11:42:47.409Z,28.31
2022-11-17T11:43:47.459Z,27.93
2022-11-17T11:44:47.380Z,27.66
2022-11-17T11:45:47.388Z,27.93
2022-11-17T11:46:47.415Z,28.14
2022-11-17T11:47:47.368Z,27.77
2022-11-17T11:48:47.327Z,27.93
2022-11-17T11:49:47.336Z,28.25
2022-11-17T11:50:47.322Z,27.55
2022-11-17T11:51:47.321Z,27.82
2022-11-17T11:52:47.321Z,27.45
2022-11-17T11:53:47.525Z,27.93
2022-11-17T11:54:50.862Z,27.88
2022-11-17T11:55:47.269Z,27.39
2022-11-17T11:56:47.277Z,27.45
2022-11-17T11:57:47.261Z,27.29
2022-11-17T11:58:47.204Z,27.18
2022-11-17T11:59:47.217Z,27.50
2022-11-17T12:00:47.198Z,27.34
2022-11-17T12:01:47.315Z,27.23
2022-11-17T12:02:47.265Z,27.18
2022-11-17T12:03:47.155Z,27.55
2022-11-17T12:04:47.192Z,26.91
2022-11-17T12:05:47.130Z,27.45
2022-11-17T12:06:47.097Z,27.45
2022-11-17T12:07:47.109Z,26.86
2022-11-17T12:08:47.164Z,27.18
2022-11-17T12:09:47.086Z,27.02
2022-11-17T12:10:47.067Z,26.86
2022-11-17T12:11:47.062Z,26.86
2022-11-17T12:12:47.114Z,27.12
2022-11-17T12:13:52.724Z,26.64
2022-11-17T12:14:47.002Z,26.91
2022-11-17T12:15:47.003Z,26.86
2022-11-17T12:16:47.042Z,26.86
2022-11-17T12:17:46.987Z,26.69
2022-11-17T12:18:46.974Z,26.86
2022-11-17T12:19:46.955Z,26.64
2022-11-17T12:20:46.988Z,26.48
2022-11-17T12:21:46.919Z,26.80
2022-11-17T12:22:46.886Z,26.43
2022-11-17T12:23:46.909Z,26.75
2022-11-17T12:24:46.904Z,26.32
2022-11-17T12:25:53.292Z,27.07
2022-11-17T12:26:46.836Z,26.75
2022-11-17T12:27:46.850Z,26.64
2022-11-17T12:28:46.825Z,26.37
2022-11-17T12:29:46.842Z,26.48
2022-11-17T12:30:46.803Z,26.48
2022-11-17T12:31:46.812Z,26.48
2022-11-17T12:32:46.817Z,26.43
2022-11-17T12:33:46.790Z,26.59
2022-11-17T12:34:46.780Z,26.32
2022-11-17T12:35:46.808Z,26.43
2022-11-17T12:36:46.752Z,26.59
2022-11-17T12:37:46.727Z,26.69
2022-11-17T12:38:46.685Z,26.32
2022-11-17T12:39:46.729Z,26.53
2022-11-17T12:40:46.678Z,26.75
2022-11-17T12:41:46.669Z,26.53
2022-11-17T12:42:46.663Z,26.48
2022-11-17T12:43:46.636Z,26.59
2022-11-17T12:44:46.737Z,26.05
2022-11-17T12:45:46.648Z,26.10
2022-11-17T12:46:46.575Z,26.32
2022-11-17T12:47:59.486Z,26.64
2022-11-17T12:48:46.657Z,26.43
2022-11-17T12:49:46.643Z,26.05
2022-11-17T12:50:46.545Z,26.10
2022-11-17T12:51:46.547Z,26.16
2022-11-17T12:52:46.537Z,26.37
2022-11-17T12:53:46.502Z,26.16